Terminal Aerodrome Forecast
Issued by NWS

Home | Current Version | Previous Version | Text Only | Print | Product List | Glossary On
Versions: 1 2 3 4 5 6 7 8 9 10 11 12 13 14 15 16 17 18 19 20 21
000
FTUS41 KBOX 291722
TAFHYA
TAF
KHYA 291722Z 2918/3018 36012G23KT P6SM BKN020
     FM291900 36011G23KT P6SM VCSH BKN040
     FM300600 35011G26KT P6SM FEW250=

USA.gov is the U.S. government's official web portal to all federal, state and local government web resources and services.